sensor_id;sensor_type;location;lat;lon;timestamp;P1;durP1;ratioP1;P2;durP2;ratioP2
76433;SDS011;65265;53.200;6.080;2023-08-06T00:04:49;15.80;;;9.20;;
76433;SDS011;65265;53.200;6.080;2023-08-06T00:09:41;15.32;;;8.90;;
76433;SDS011;65265;53.200;6.080;2023-08-06T00:14:34;11.75;;;8.60;;
76433;SDS011;65265;53.200;6.080;2023-08-06T00:19:25;12.57;;;8.27;;
76433;SDS011;65265;53.200;6.080;2023-08-06T00:24:17;13.52;;;8.40;;
76433;SDS011;65265;53.200;6.080;2023-08-06T00:29:08;13.70;;;8.30;;
76433;SDS011;65265;53.200;6.080;2023-08-06T00:34:01;11.30;;;7.22;;
76433;SDS011;65265;53.200;6.080;2023-08-06T00:38:53;10.07;;;7.30;;
76433;SDS011;65265;53.200;6.080;2023-08-06T00:43:45;9.95;;;6.90;;
76433;SDS011;65265;53.200;6.080;2023-08-06T00:48:37;12.65;;;6.88;;
76433;SDS011;65265;53.200;6.080;2023-08-06T00:53:30;10.25;;;6.43;;
76433;SDS011;65265;53.200;6.080;2023-08-06T00:58:22;11.15;;;7.20;;
76433;SDS011;65265;53.200;6.080;2023-08-06T01:03:13;10.27;;;7.03;;
76433;SDS011;65265;53.200;6.080;2023-08-06T01:08:09;9.95;;;6.80;;
76433;SDS011;65265;53.200;6.080;2023-08-06T01:13:11;9.90;;;6.88;;
76433;SDS011;65265;53.200;6.080;2023-08-06T01:18:11;9.60;;;6.97;;
76433;SDS011;65265;53.200;6.080;2023-08-06T01:23:04;11.57;;;6.88;;
76433;SDS011;65265;53.200;6.080;2023-08-06T01:27:56;10.52;;;7.00;;
76433;SDS011;65265;53.200;6.080;2023-08-06T01:32:58;12.52;;;7.30;;
76433;SDS011;65265;53.200;6.080;2023-08-06T01:37:51;11.40;;;7.22;;
76433;SDS011;65265;53.200;6.080;2023-08-06T01:42:44;12.52;;;7.78;;
76433;SDS011;65265;53.200;6.080;2023-08-06T01:47:36;10.23;;;7.82;;
76433;SDS011;65265;53.200;6.080;2023-08-06T01:52:27;12.65;;;7.78;;
76433;SDS011;65265;53.200;6.080;2023-08-06T01:57:19;9.88;;;6.13;;
76433;SDS011;65265;53.200;6.080;2023-08-06T02:02:12;11.52;;;7.30;;
76433;SDS011;65265;53.200;6.080;2023-08-06T02:07:04;9.13;;;5.45;;
76433;SDS011;65265;53.200;6.080;2023-08-06T02:11:55;12.30;;;7.18;;
76433;SDS011;65265;53.200;6.080;2023-08-06T02:16:47;11.43;;;7.40;;
76433;SDS011;65265;53.200;6.080;2023-08-06T02:21:41;13.80;;;8.07;;
76433;SDS011;65265;53.200;6.080;2023-08-06T02:26:33;13.93;;;7.70;;
76433;SDS011;65265;53.200;6.080;2023-08-06T02:31:24;12.32;;;8.10;;
76433;SDS011;65265;53.200;6.080;2023-08-06T02:36:16;10.77;;;7.05;;
76433;SDS011;65265;53.200;6.080;2023-08-06T02:41:09;11.15;;;6.60;;
76433;SDS011;65265;53.200;6.080;2023-08-06T02:46:00;12.43;;;10.00;;
76433;SDS011;65265;53.200;6.080;2023-08-06T02:50:52;13.35;;;8.25;;
76433;SDS011;65265;53.200;6.080;2023-08-06T02:55:45;11.70;;;6.82;;
76433;SDS011;65265;53.200;6.080;2023-08-06T03:00:39;11.90;;;8.20;;
76433;SDS011;65265;53.200;6.080;2023-08-06T03:05:30;9.85;;;6.30;;
76433;SDS011;65265;53.200;6.080;2023-08-06T03:10:22;14.45;;;8.38;;
76433;SDS011;65265;53.200;6.080;2023-08-06T03:15:13;11.02;;;6.55;;
76433;SDS011;65265;53.200;6.080;2023-08-06T03:20:07;9.90;;;6.57;;
76433;SDS011;65265;53.200;6.080;2023-08-06T03:24:58;8.50;;;5.93;;
76433;SDS011;65265;53.200;6.080;2023-08-06T03:29:50;8.35;;;6.97;;
76433;SDS011;65265;53.200;6.080;2023-08-06T03:34:41;12.35;;;8.15;;
76433;SDS011;65265;53.200;6.080;2023-08-06T03:39:34;11.50;;;8.00;;
76433;SDS011;65265;53.200;6.080;2023-08-06T03:44:26;9.95;;;7.10;;
76433;SDS011;65265;53.200;6.080;2023-08-06T03:49:18;7.65;;;4.85;;
76433;SDS011;65265;53.200;6.080;2023-08-06T03:54:09;14.45;;;8.30;;
76433;SDS011;65265;53.200;6.080;2023-08-06T03:59:02;9.55;;;6.53;;
76433;SDS011;65265;53.200;6.080;2023-08-06T04:03:54;9.27;;;6.63;;
76433;SDS011;65265;53.200;6.080;2023-08-06T04:08:45;7.63;;;5.32;;
76433;SDS011;65265;53.200;6.080;2023-08-06T04:13:37;10.35;;;6.22;;
76433;SDS011;65265;53.200;6.080;2023-08-06T04:18:29;10.60;;;6.65;;
76433;SDS011;65265;53.200;6.080;2023-08-06T04:23:21;7.45;;;5.90;;
76433;SDS011;65265;53.200;6.080;2023-08-06T04:28:12;8.55;;;5.90;;
76433;SDS011;65265;53.200;6.080;2023-08-06T04:33:04;7.40;;;5.00;;
76433;SDS011;65265;53.200;6.080;2023-08-06T04:37:57;7.43;;;5.95;;
76433;SDS011;65265;53.200;6.080;2023-08-06T04:42:48;7.53;;;4.93;;
76433;SDS011;65265;53.200;6.080;2023-08-06T04:47:40;8.77;;;5.43;;
76433;SDS011;65265;53.200;6.080;2023-08-06T04:52:32;6.95;;;5.43;;
76433;SDS011;65265;53.200;6.080;2023-08-06T04:57:25;8.65;;;6.28;;
76433;SDS011;65265;53.200;6.080;2023-08-06T05:02:17;10.55;;;7.55;;
76433;SDS011;65265;53.200;6.080;2023-08-06T05:07:08;9.05;;;6.65;;
76433;SDS011;65265;53.200;6.080;2023-08-06T05:12:00;9.65;;;5.28;;
76433;SDS011;65265;53.200;6.080;2023-08-06T05:16:53;7.53;;;5.43;;
76433;SDS011;65265;53.200;6.080;2023-08-06T05:21:44;10.60;;;6.68;;
76433;SDS011;65265;53.200;6.080;2023-08-06T05:26:36;13.38;;;7.88;;
76433;SDS011;65265;53.200;6.080;2023-08-06T05:31:27;8.90;;;6.07;;
76433;SDS011;65265;53.200;6.080;2023-08-06T05:36:20;6.85;;;5.38;;
76433;SDS011;65265;53.200;6.080;2023-08-06T05:41:11;12.23;;;9.50;;
76433;SDS011;65265;53.200;6.080;2023-08-06T05:46:03;10.10;;;6.45;;
76433;SDS011;65265;53.200;6.080;2023-08-06T05:50:54;11.30;;;7.22;;
76433;SDS011;65265;53.200;6.080;2023-08-06T05:55:47;13.80;;;8.38;;
76433;SDS011;65265;53.200;6.080;2023-08-06T06:00:39;15.10;;;9.48;;
76433;SDS011;65265;53.200;6.080;2023-08-06T06:05:30;10.40;;;7.40;;
76433;SDS011;65265;53.200;6.080;2023-08-06T06:10:22;11.15;;;7.45;;
76433;SDS011;65265;53.200;6.080;2023-08-06T06:15:14;13.10;;;7.70;;
76433;SDS011;65265;53.200;6.080;2023-08-06T06:20:06;10.88;;;7.05;;
76433;SDS011;65265;53.200;6.080;2023-08-06T06:29:49;16.08;;;10.75;;
76433;SDS011;65265;53.200;6.080;2023-08-06T06:34:44;11.52;;;7.82;;
76433;SDS011;65265;53.200;6.080;2023-08-06T06:39:35;11.68;;;7.95;;
76433;SDS011;65265;53.200;6.080;2023-08-06T06:44:27;14.93;;;9.57;;
76433;SDS011;65265;53.200;6.080;2023-08-06T06:49:18;12.02;;;7.80;;
76433;SDS011;65265;53.200;6.080;2023-08-06T06:54:11;13.60;;;9.50;;
76433;SDS011;65265;53.200;6.080;2023-08-06T06:59:02;13.25;;;8.57;;
76433;SDS011;65265;53.200;6.080;2023-08-06T07:03:54;14.43;;;8.57;;
76433;SDS011;65265;53.200;6.080;2023-08-06T07:08:45;12.60;;;10.15;;
76433;SDS011;65265;53.200;6.080;2023-08-06T07:13:38;13.13;;;10.68;;
76433;SDS011;65265;53.200;6.080;2023-08-06T07:18:29;12.88;;;7.55;;
76433;SDS011;65265;53.200;6.080;2023-08-06T07:23:21;12.45;;;7.78;;
76433;SDS011;65265;53.200;6.080;2023-08-06T07:28:13;10.77;;;7.85;;
76433;SDS011;65265;53.200;6.080;2023-08-06T07:33:07;9.60;;;6.68;;
76433;SDS011;65265;53.200;6.080;2023-08-06T07:37:58;12.57;;;8.23;;
76433;SDS011;65265;53.200;6.080;2023-08-06T07:42:50;10.93;;;7.60;;
76433;SDS011;65265;53.200;6.080;2023-08-06T07:47:42;10.60;;;7.43;;
76433;SDS011;65265;53.200;6.080;2023-08-06T07:52:35;9.82;;;7.10;;
76433;SDS011;65265;53.200;6.080;2023-08-06T07:57:27;11.10;;;6.85;;
76433;SDS011;65265;53.200;6.080;2023-08-06T08:02:19;7.97;;;5.72;;
76433;SDS011;65265;53.200;6.080;2023-08-06T08:07:10;9.93;;;6.85;;
76433;SDS011;65265;53.200;6.080;2023-08-06T08:12:03;8.77;;;5.70;;
76433;SDS011;65265;53.200;6.080;2023-08-06T08:16:55;7.05;;;4.88;;
76433;SDS011;65265;53.200;6.080;2023-08-06T08:21:47;9.40;;;5.25;;
76433;SDS011;65265;53.200;6.080;2023-08-06T08:26:38;5.50;;;4.20;;
76433;SDS011;65265;53.200;6.080;2023-08-06T08:31:31;7.32;;;5.28;;
76433;SDS011;65265;53.200;6.080;2023-08-06T08:36:29;5.38;;;4.07;;
76433;SDS011;65265;53.200;6.080;2023-08-06T08:41:20;4.45;;;3.20;;
76433;SDS011;65265;53.200;6.080;2023-08-06T08:46:12;5.30;;;3.17;;
76433;SDS011;65265;53.200;6.080;2023-08-06T08:51:06;4.65;;;2.72;;
76433;SDS011;65265;53.200;6.080;2023-08-06T08:55:58;7.10;;;3.50;;
76433;SDS011;65265;53.200;6.080;2023-08-06T09:00:50;9.48;;;4.78;;
76433;SDS011;65265;53.200;6.080;2023-08-06T09:10:36;5.60;;;2.97;;
76433;SDS011;65265;53.200;6.080;2023-08-06T09:15:28;5.55;;;2.95;;
76433;SDS011;65265;53.200;6.080;2023-08-06T09:20:21;7.43;;;3.15;;
76433;SDS011;65265;53.200;6.080;2023-08-06T09:25:13;2.95;;;1.42;;
76433;SDS011;65265;53.200;6.080;2023-08-06T09:30:28;7.68;;;2.38;;
76433;SDS011;65265;53.200;6.080;2023-08-06T09:35:21;2.78;;;1.52;;
76433;SDS011;65265;53.200;6.080;2023-08-06T09:45:18;2.60;;;1.05;;
76433;SDS011;65265;53.200;6.080;2023-08-06T09:50:14;4.35;;;1.05;;
76433;SDS011;65265;53.200;6.080;2023-08-06T09:55:06;2.42;;;0.68;;
76433;SDS011;65265;53.200;6.080;2023-08-06T09:59:59;1.75;;;0.60;;
76433;SDS011;65265;53.200;6.080;2023-08-06T10:04:51;3.67;;;0.80;;
76433;SDS011;65265;53.200;6.080;2023-08-06T10:09:46;2.30;;;0.63;;
76433;SDS011;65265;53.200;6.080;2023-08-06T10:14:37;2.97;;;1.05;;
76433;SDS011;65265;53.200;6.080;2023-08-06T10:19:31;4.50;;;0.93;;
76433;SDS011;65265;53.200;6.080;2023-08-06T10:24:24;3.53;;;0.43;;
76433;SDS011;65265;53.200;6.080;2023-08-06T10:29:34;1.67;;;0.55;;
76433;SDS011;65265;53.200;6.080;2023-08-06T10:34:39;1.63;;;0.50;;
76433;SDS011;65265;53.200;6.080;2023-08-06T10:39:49;2.42;;;0.75;;
76433;SDS011;65265;53.200;6.080;2023-08-06T10:44:48;2.85;;;2.05;;
76433;SDS011;65265;53.200;6.080;2023-08-06T10:50:03;1.77;;;1.58;;
76433;SDS011;65265;53.200;6.080;2023-08-06T10:54:57;1.48;;;0.73;;
76433;SDS011;65265;53.200;6.080;2023-08-06T10:59:49;2.70;;;1.08;;
76433;SDS011;65265;53.200;6.080;2023-08-06T11:04:41;2.15;;;1.23;;
76433;SDS011;65265;53.200;6.080;2023-08-06T11:09:32;1.35;;;1.08;;
76433;SDS011;65265;53.200;6.080;2023-08-06T11:14:25;2.40;;;0.98;;
76433;SDS011;65265;53.200;6.080;2023-08-06T11:19:17;3.47;;;0.98;;
76433;SDS011;65265;53.200;6.080;2023-08-06T11:29:01;1.65;;;0.70;;
76433;SDS011;65265;53.200;6.080;2023-08-06T11:33:54;1.63;;;0.68;;
76433;SDS011;65265;53.200;6.080;2023-08-06T11:38:46;3.17;;;1.55;;
76433;SDS011;65265;53.200;6.080;2023-08-06T11:43:39;1.85;;;0.80;;
76433;SDS011;65265;53.200;6.080;2023-08-06T11:48:30;5.05;;;1.00;;
76433;SDS011;65265;53.200;6.080;2023-08-06T11:53:27;3.08;;;0.93;;
76433;SDS011;65265;53.200;6.080;2023-08-06T11:58:18;4.10;;;1.20;;
76433;SDS011;65265;53.200;6.080;2023-08-06T12:03:10;1.65;;;0.80;;
76433;SDS011;65265;53.200;6.080;2023-08-06T12:08:02;2.83;;;1.15;;
76433;SDS011;65265;53.200;6.080;2023-08-06T12:12:55;2.17;;;0.82;;
76433;SDS011;65265;53.200;6.080;2023-08-06T12:17:47;1.75;;;0.88;;
76433;SDS011;65265;53.200;6.080;2023-08-06T12:22:38;4.95;;;1.08;;
76433;SDS011;65265;53.200;6.080;2023-08-06T12:32:23;1.55;;;0.82;;
76433;SDS011;65265;53.200;6.080;2023-08-06T12:37:14;2.53;;;0.90;;
76433;SDS011;65265;53.200;6.080;2023-08-06T12:42:06;2.63;;;0.60;;
76433;SDS011;65265;53.200;6.080;2023-08-06T12:46:57;1.83;;;0.63;;
76433;SDS011;65265;53.200;6.080;2023-08-06T12:51:50;2.40;;;0.73;;
76433;SDS011;65265;53.200;6.080;2023-08-06T12:56:41;2.67;;;1.10;;
76433;SDS011;65265;53.200;6.080;2023-08-06T13:01:33;2.97;;;1.40;;
76433;SDS011;65265;53.200;6.080;2023-08-06T13:06:24;2.38;;;0.73;;
76433;SDS011;65265;53.200;6.080;2023-08-06T13:11:17;1.98;;;0.95;;
76433;SDS011;65265;53.200;6.080;2023-08-06T13:16:09;3.42;;;1.27;;
76433;SDS011;65265;53.200;6.080;2023-08-06T13:21:00;2.35;;;0.93;;
76433;SDS011;65265;53.200;6.080;2023-08-06T13:25:51;2.78;;;0.93;;
76433;SDS011;65265;53.200;6.080;2023-08-06T13:30:45;2.67;;;1.85;;
76433;SDS011;65265;53.200;6.080;2023-08-06T13:35:36;1.85;;;0.77;;
76433;SDS011;65265;53.200;6.080;2023-08-06T13:40:28;2.53;;;0.93;;
76433;SDS011;65265;53.200;6.080;2023-08-06T13:45:20;2.80;;;1.02;;
76433;SDS011;65265;53.200;6.080;2023-08-06T13:50:13;1.85;;;0.80;;
76433;SDS011;65265;53.200;6.080;2023-08-06T13:55:04;3.65;;;0.70;;
76433;SDS011;65265;53.200;6.080;2023-08-06T13:59:57;1.70;;;0.85;;
76433;SDS011;65265;53.200;6.080;2023-08-06T14:04:48;1.50;;;0.88;;
76433;SDS011;65265;53.200;6.080;2023-08-06T14:14:34;2.40;;;0.93;;
76433;SDS011;65265;53.200;6.080;2023-08-06T14:24:17;2.45;;;0.55;;
76433;SDS011;65265;53.200;6.080;2023-08-06T14:29:09;2.30;;;0.60;;
76433;SDS011;65265;53.200;6.080;2023-08-06T14:34:01;1.67;;;0.40;;
76433;SDS011;65265;53.200;6.080;2023-08-06T14:38:53;1.88;;;0.43;;
76433;SDS011;65265;53.200;6.080;2023-08-06T14:43:44;1.42;;;0.60;;
76433;SDS011;65265;53.200;6.080;2023-08-06T14:48:37;5.60;;;0.55;;
76433;SDS011;65265;53.200;6.080;2023-08-06T14:53:29;1.95;;;0.63;;
76433;SDS011;65265;53.200;6.080;2023-08-06T15:03:12;4.60;;;0.80;;
76433;SDS011;65265;53.200;6.080;2023-08-06T15:12:56;2.42;;;0.95;;
76433;SDS011;65265;53.200;6.080;2023-08-06T15:17:49;2.25;;;0.57;;
76433;SDS011;65265;53.200;6.080;2023-08-06T15:22:41;2.05;;;0.43;;
76433;SDS011;65265;53.200;6.080;2023-08-06T15:32:25;2.22;;;0.77;;
76433;SDS011;65265;53.200;6.080;2023-08-06T15:37:17;3.25;;;0.95;;
76433;SDS011;65265;53.200;6.080;2023-08-06T15:42:09;3.20;;;0.95;;
76433;SDS011;65265;53.200;6.080;2023-08-06T15:47:02;2.65;;;1.38;;
76433;SDS011;65265;53.200;6.080;2023-08-06T15:51:53;2.42;;;1.48;;
76433;SDS011;65265;53.200;6.080;2023-08-06T15:56:45;4.95;;;3.38;;
76433;SDS011;65265;53.200;6.080;2023-08-06T16:01:36;2.00;;;0.80;;
76433;SDS011;65265;53.200;6.080;2023-08-06T16:06:29;4.35;;;1.25;;
76433;SDS011;65265;53.200;6.080;2023-08-06T16:11:20;2.75;;;1.05;;
76433;SDS011;65265;53.200;6.080;2023-08-06T16:16:12;2.50;;;0.60;;
76433;SDS011;65265;53.200;6.080;2023-08-06T16:21:03;1.65;;;0.40;;
76433;SDS011;65265;53.200;6.080;2023-08-06T16:25:56;1.15;;;0.30;;
76433;SDS011;65265;53.200;6.080;2023-08-06T16:30:48;1.98;;;0.55;;
76433;SDS011;65265;53.200;6.080;2023-08-06T16:35:39;1.30;;;0.28;;
76433;SDS011;65265;53.200;6.080;2023-08-06T16:40:31;2.33;;;0.28;;
76433;SDS011;65265;53.200;6.080;2023-08-06T16:45:24;1.00;;;0.30;;
76433;SDS011;65265;53.200;6.080;2023-08-06T16:50:15;5.25;;;0.60;;
76433;SDS011;65265;53.200;6.080;2023-08-06T16:55:07;2.22;;;1.60;;
76433;SDS011;65265;53.200;6.080;2023-08-06T16:59:59;2.25;;;0.55;;
76433;SDS011;65265;53.200;6.080;2023-08-06T17:04:52;1.88;;;0.63;;
76433;SDS011;65265;53.200;6.080;2023-08-06T17:09:43;2.05;;;0.82;;
76433;SDS011;65265;53.200;6.080;2023-08-06T17:14:35;2.40;;;0.70;;
76433;SDS011;65265;53.200;6.080;2023-08-06T17:19:26;3.05;;;0.85;;
76433;SDS011;65265;53.200;6.080;2023-08-06T17:24:20;2.40;;;0.75;;
76433;SDS011;65265;53.200;6.080;2023-08-06T17:29:11;1.70;;;1.13;;
76433;SDS011;65265;53.200;6.080;2023-08-06T17:34:02;2.30;;;0.82;;
76433;SDS011;65265;53.200;6.080;2023-08-06T17:38:54;2.33;;;0.90;;
76433;SDS011;65265;53.200;6.080;2023-08-06T17:43:47;3.60;;;0.68;;
76433;SDS011;65265;53.200;6.080;2023-08-06T17:48:38;1.60;;;0.73;;
76433;SDS011;65265;53.200;6.080;2023-08-06T17:53:30;2.17;;;0.80;;
76433;SDS011;65265;53.200;6.080;2023-08-06T17:58:21;2.47;;;0.80;;
76433;SDS011;65265;53.200;6.080;2023-08-06T18:03:14;2.92;;;1.17;;
76433;SDS011;65265;53.200;6.080;2023-08-06T18:08:07;1.85;;;0.63;;
76433;SDS011;65265;53.200;6.080;2023-08-06T18:12:58;1.90;;;1.55;;
76433;SDS011;65265;53.200;6.080;2023-08-06T18:17:50;2.92;;;0.75;;
76433;SDS011;65265;53.200;6.080;2023-08-06T18:22:42;2.05;;;0.20;;
76433;SDS011;65265;53.200;6.080;2023-08-06T18:27:34;3.03;;;0.50;;
76433;SDS011;65265;53.200;6.080;2023-08-06T18:32:25;1.40;;;0.43;;
76433;SDS011;65265;53.200;6.080;2023-08-06T18:37:17;1.55;;;0.60;;
76433;SDS011;65265;53.200;6.080;2023-08-06T18:42:10;4.15;;;0.52;;
76433;SDS011;65265;53.200;6.080;2023-08-06T18:47:02;1.33;;;0.50;;
76433;SDS011;65265;53.200;6.080;2023-08-06T18:51:54;5.28;;;1.20;;
76433;SDS011;65265;53.200;6.080;2023-08-06T18:56:45;1.52;;;0.40;;
76433;SDS011;65265;53.200;6.080;2023-08-06T19:01:38;2.15;;;0.57;;
76433;SDS011;65265;53.200;6.080;2023-08-06T19:06:30;2.50;;;0.80;;
76433;SDS011;65265;53.200;6.080;2023-08-06T19:11:22;2.63;;;0.70;;
76433;SDS011;65265;53.200;6.080;2023-08-06T19:16:13;2.13;;;0.90;;
76433;SDS011;65265;53.200;6.080;2023-08-06T19:21:06;2.13;;;1.48;;
76433;SDS011;65265;53.200;6.080;2023-08-06T19:25:59;1.38;;;0.75;;
76433;SDS011;65265;53.200;6.080;2023-08-06T19:30:50;2.08;;;0.85;;
76433;SDS011;65265;53.200;6.080;2023-08-06T19:35:45;2.00;;;0.80;;
76433;SDS011;65265;53.200;6.080;2023-08-06T19:40:40;1.70;;;0.90;;
76433;SDS011;65265;53.200;6.080;2023-08-06T19:45:31;2.45;;;1.33;;
76433;SDS011;65265;53.200;6.080;2023-08-06T19:50:23;1.85;;;1.30;;
76433;SDS011;65265;53.200;6.080;2023-08-06T19:55:14;2.75;;;1.33;;
76433;SDS011;65265;53.200;6.080;2023-08-06T20:00:08;3.08;;;1.58;;
76433;SDS011;65265;53.200;6.080;2023-08-06T20:05:00;4.30;;;2.40;;
76433;SDS011;65265;53.200;6.080;2023-08-06T20:09:52;2.33;;;1.10;;
76433;SDS011;65265;53.200;6.080;2023-08-06T20:14:43;3.17;;;1.55;;
76433;SDS011;65265;53.200;6.080;2023-08-06T20:19:36;1.80;;;0.82;;
76433;SDS011;65265;53.200;6.080;2023-08-06T20:24:29;1.70;;;0.82;;
76433;SDS011;65265;53.200;6.080;2023-08-06T20:29:21;2.72;;;0.90;;
76433;SDS011;65265;53.200;6.080;2023-08-06T20:34:12;3.13;;;0.93;;
76433;SDS011;65265;53.200;6.080;2023-08-06T20:39:06;1.50;;;0.50;;
76433;SDS011;65265;53.200;6.080;2023-08-06T20:43:57;2.83;;;0.98;;
76433;SDS011;65265;53.200;6.080;2023-08-06T20:48:48;2.55;;;0.98;;
76433;SDS011;65265;53.200;6.080;2023-08-06T20:53:40;2.55;;;1.13;;
76433;SDS011;65265;53.200;6.080;2023-08-06T20:58:33;2.90;;;1.42;;
76433;SDS011;65265;53.200;6.080;2023-08-06T21:03:25;2.85;;;1.48;;
76433;SDS011;65265;53.200;6.080;2023-08-06T21:08:17;2.53;;;1.23;;
76433;SDS011;65265;53.200;6.080;2023-08-06T21:13:09;3.05;;;1.52;;
76433;SDS011;65265;53.200;6.080;2023-08-06T21:18:02;3.42;;;1.42;;
76433;SDS011;65265;53.200;6.080;2023-08-06T21:22:56;2.53;;;1.40;;
76433;SDS011;65265;53.200;6.080;2023-08-06T21:27:47;3.65;;;1.90;;
76433;SDS011;65265;53.200;6.080;2023-08-06T21:32:39;2.72;;;1.65;;
76433;SDS011;65265;53.200;6.080;2023-08-06T21:37:32;2.38;;;1.38;;
76433;SDS011;65265;53.200;6.080;2023-08-06T21:42:24;4.50;;;2.22;;
76433;SDS011;65265;53.200;6.080;2023-08-06T21:47:15;2.53;;;1.55;;
76433;SDS011;65265;53.200;6.080;2023-08-06T21:52:07;4.68;;;1.35;;
76433;SDS011;65265;53.200;6.080;2023-08-06T21:57:00;2.92;;;1.40;;
76433;SDS011;65265;53.200;6.080;2023-08-06T22:01:51;2.75;;;1.08;;
76433;SDS011;65265;53.200;6.080;2023-08-06T22:06:43;2.58;;;1.20;;
76433;SDS011;65265;53.200;6.080;2023-08-06T22:11:34;5.03;;;1.42;;
76433;SDS011;65265;53.200;6.080;2023-08-06T22:16:27;2.50;;;1.25;;
76433;SDS011;65265;53.200;6.080;2023-08-06T22:21:19;2.53;;;0.90;;
76433;SDS011;65265;53.200;6.080;2023-08-06T22:26:10;2.63;;;1.10;;
76433;SDS011;65265;53.200;6.080;2023-08-06T22:31:03;2.17;;;1.13;;
76433;SDS011;65265;53.200;6.080;2023-08-06T22:35:56;2.67;;;0.90;;
76433;SDS011;65265;53.200;6.080;2023-08-06T22:40:48;2.28;;;0.77;;
76433;SDS011;65265;53.200;6.080;2023-08-06T22:45:39;1.70;;;0.70;;
76433;SDS011;65265;53.200;6.080;2023-08-06T22:50:31;2.58;;;2.10;;
76433;SDS011;65265;53.200;6.080;2023-08-06T22:55:24;4.10;;;0.98;;
76433;SDS011;65265;53.200;6.080;2023-08-06T23:00:15;1.40;;;0.55;;
76433;SDS011;65265;53.200;6.080;2023-08-06T23:05:07;4.57;;;0.77;;
76433;SDS011;65265;53.200;6.080;2023-08-06T23:09:59;1.35;;;0.38;;
76433;SDS011;65265;53.200;6.080;2023-08-06T23:14:52;1.85;;;0.60;;
76433;SDS011;65265;53.200;6.080;2023-08-06T23:19:44;1.52;;;0.68;;
76433;SDS011;65265;53.200;6.080;2023-08-06T23:24:35;3.08;;;0.80;;
76433;SDS011;65265;53.200;6.080;2023-08-06T23:29:27;2.63;;;1.23;;
76433;SDS011;65265;53.200;6.080;2023-08-06T23:34:20;2.05;;;0.80;;
76433;SDS011;65265;53.200;6.080;2023-08-06T23:39:12;1.05;;;0.50;;
76433;SDS011;65265;53.200;6.080;2023-08-06T23:44:03;3.13;;;0.80;;
76433;SDS011;65265;53.200;6.080;2023-08-06T23:48:55;0.90;;;0.57;;
76433;SDS011;65265;53.200;6.080;2023-08-06T23:53:48;2.58;;;1.25;;
76433;SDS011;65265;53.200;6.080;2023-08-06T23:58:40;1.35;;;0.30;;
